Time;durP1;ratioP1;P1;durP2;ratioP2;P2;SDS_P1;SDS_P2;PMS_P1;PMS_P2;Temp;Humidity;BMP_temperature;BMP_pressure;BME280_temperature;BME280_humidity;BME280_pressure;Samples;Min_cycle;Max_cycle;Signal;HPM_P1;HPM_P2
2021/12/27 00:01:58;;;;;;;8.18;3.55;;;3.90;85.00;;;;;;5009190;28;20040;-72
2021/12/27 00:04:31;;;;;;;7.15;3.25;;;3.90;85.00;;;;;;5012101;28;20132;-71
2021/12/27 00:07:11;;;;;;;7.80;2.70;;;3.90;84.80;;;;;;3920198;28;10001968;-72
2021/12/27 00:09:45;;;;;;;8.65;4.05;;;3.90;84.90;;;;;;1724584;28;10002025;-71
2021/12/27 00:12:20;;;;;;;8.23;3.70;;;4.00;85.00;;;;;;5010708;28;20116;-70
2021/12/27 00:14:47;;;;;;;7.75;2.95;;;4.00;84.90;;;;;;5009794;28;20068;-72
2021/12/27 00:17:14;;;;;;;8.82;3.65;;;3.90;85.00;;;;;;5008604;28;20133;-72
2021/12/27 00:19:41;;;;;;;10.55;3.72;;;4.00;85.00;;;;;;4992196;28;20408;-71
2021/12/27 00:22:08;;;;;;;8.35;4.10;;;4.00;85.10;;;;;;5008614;28;20037;-71
2021/12/27 00:24:35;;;;;;;9.02;3.70;;;4.00;85.10;;;;;;5009347;28;20410;-71
2021/12/27 00:27:02;;;;;;;9.85;3.50;;;4.00;85.20;;;;;;5008249;28;20038;-70
2021/12/27 00:29:31;;;;;;;9.85;4.07;;;4.00;85.30;;;;;;5009963;28;20037;-71
2021/12/27 00:31:58;;;;;;;7.82;3.67;;;4.00;85.30;;;;;;5010001;28;20042;-72
2021/12/27 00:34:25;;;;;;;7.82;3.28;;;4.00;85.40;;;;;;5009316;28;20138;-71
2021/12/27 00:36:52;;;;;;;8.93;3.42;;;4.00;85.40;;;;;;5005850;28;20071;-72
2021/12/27 00:39:19;;;;;;;8.00;3.13;;;4.00;85.40;;;;;;5008797;28;20058;-71
2021/12/27 00:41:46;;;;;;;6.00;2.65;;;4.00;85.40;;;;;;5008096;28;20041;-71
2021/12/27 00:44:13;;;;;;;6.45;3.15;;;4.00;85.30;;;;;;5007812;28;20504;-73
2021/12/27 00:46:41;;;;;;;7.85;3.65;;;4.00;85.30;;;;;;5009762;28;20056;-71
2021/12/27 00:49:08;;;;;;;6.68;2.45;;;4.00;85.20;;;;;;5009600;28;20121;-72
2021/12/27 00:51:35;;;;;;;3.92;1.85;;;4.00;85.20;;;;;;4992340;28;20054;-71
2021/12/27 00:54:02;;;;;;;7.07;3.30;;;4.00;85.10;;;;;;5010752;28;20137;-70
2021/12/27 00:56:29;;;;;;;5.60;2.78;;;4.00;85.00;;;;;;5009689;28;20046;-71
2021/12/27 00:58:56;;;;;;;4.88;2.10;;;4.10;85.00;;;;;;5010724;28;20057;-71
2021/12/27 01:01:22;;;;;;;5.15;2.38;;;4.00;85.00;;;;;;5008575;28;20496;-71
2021/12/27 01:03:51;;;;;;;5.30;2.25;;;4.10;84.90;;;;;;5011053;28;20053;-71
2021/12/27 01:06:18;;;;;;;5.88;2.10;;;4.10;84.90;;;;;;5010531;28;20046;-72
2021/12/27 01:08:45;;;;;;;5.57;2.22;;;4.00;85.00;;;;;;5010343;28;20058;-71
2021/12/27 01:11:23;;;;;;;3.92;1.67;;;4.00;84.90;;;;;;5011424;28;20042;-72
2021/12/27 01:14:03;;;;;;;5.18;1.70;;;4.00;84.90;;;;;;5009698;28;20073;-72
2021/12/27 01:16:31;;;;;;;3.53;1.27;;;4.00;84.80;;;;;;5009600;28;20148;-70
2021/12/27 01:18:59;;;;;;;4.22;1.63;;;4.10;84.80;;;;;;5010711;28;20105;-71
2021/12/27 01:21:27;;;;;;;3.85;2.08;;;4.00;84.80;;;;;;4991935;28;20161;-71
2021/12/27 01:23:56;;;;;;;5.40;1.90;;;4.00;84.80;;;;;;5010602;28;20054;-70
2021/12/27 01:26:25;;;;;;;6.20;1.77;;;4.00;84.80;;;;;;5009712;28;20046;-72
2021/12/27 01:28:52;;;;;;;3.38;1.40;;;4.00;84.80;;;;;;5010532;28;20441;-72
2021/12/27 01:31:19;;;;;;;5.97;2.25;;;4.00;84.90;;;;;;5010291;28;20052;-71
2021/12/27 01:33:47;;;;;;;4.50;1.85;;;4.00;85.00;;;;;;4992770;28;20050;-71
2021/12/27 01:36:16;;;;;;;3.05;1.48;;;4.00;85.00;;;;;;5010756;28;20400;-71
2021/12/27 01:38:43;;;;;;;3.95;1.67;;;4.00;85.00;;;;;;5010111;28;20128;-71
2021/12/27 01:41:12;;;;;;;3.03;1.73;;;4.00;85.10;;;;;;5011018;28;20149;-70
2021/12/27 01:43:40;;;;;;;4.57;1.80;;;4.10;85.10;;;;;;5010230;28;20054;-71
2021/12/27 01:46:10;;;;;;;5.07;1.83;;;4.10;85.00;;;;;;5010455;28;20042;-71
2021/12/27 01:48:39;;;;;;;4.20;2.28;;;4.10;85.00;;;;;;4993058;28;20049;-71
2021/12/27 01:51:10;;;;;;;3.35;1.42;;;4.10;85.00;;;;;;4992805;28;20518;-71
2021/12/27 01:53:48;;;;;;;3.72;1.58;;;4.10;85.00;;;;;;5008775;28;20693;-71
2021/12/27 01:56:17;;;;;;;3.97;1.92;;;4.10;85.00;;;;;;5008414;28;20042;-73
2021/12/27 01:58:45;;;;;;;2.20;1.30;;;4.10;85.00;;;;;;5009060;28;20046;-72
2021/12/27 02:01:16;;;;;;;3.00;1.50;;;4.00;85.10;;;;;;5005583;28;20081;-70
2021/12/27 02:03:44;;;;;;;3.45;1.70;;;4.00;85.10;;;;;;5008090;28;20042;-72
2021/12/27 02:06:12;;;;;;;3.60;1.80;;;4.00;85.00;;;;;;5008172;28;20492;-72
2021/12/27 02:08:42;;;;;;;4.05;1.65;;;4.10;85.10;;;;;;5009892;28;20062;-72
2021/12/27 02:11:13;;;;;;;2.70;1.40;;;4.10;85.20;;;;;;5012062;28;20543;-71
2021/12/27 02:13:44;;;;;;;2.38;1.10;;;4.00;85.10;;;;;;5011401;28;20050;-72
2021/12/27 02:16:12;;;;;;;3.20;1.65;;;4.10;85.20;;;;;;5012816;28;20053;-71
2021/12/27 02:18:40;;;;;;;2.17;1.02;;;4.00;85.20;;;;;;5011353;28;20072;-71
2021/12/27 02:21:09;;;;;;;2.45;1.20;;;4.00;85.20;;;;;;5011739;28;20057;-72
2021/12/27 02:23:38;;;;;;;2.53;1.15;;;4.00;85.10;;;;;;5011990;28;20141;-72
2021/12/27 02:26:06;;;;;;;2.75;1.30;;;4.10;85.10;;;;;;5009858;28;20081;-71
2021/12/27 02:28:33;;;;;;;3.17;1.15;;;4.10;85.10;;;;;;5011148;28;20121;-71
2021/12/27 02:31:00;;;;;;;2.03;1.10;;;4.00;85.10;;;;;;5011861;28;20037;-72
2021/12/27 02:33:29;;;;;;;2.92;1.25;;;4.00;85.10;;;;;;4996552;28;20072;-71
2021/12/27 02:35:58;;;;;;;3.03;1.20;;;4.00;85.20;;;;;;5014147;28;20399;-71
2021/12/27 02:38:28;;;;;;;2.28;0.95;;;4.10;85.20;;;;;;5012832;28;20407;-71
2021/12/27 02:40:56;;;;;;;1.88;1.13;;;4.00;85.20;;;;;;5013561;28;20038;-71
2021/12/27 02:43:26;;;;;;;3.08;1.10;;;4.00;85.10;;;;;;5013459;28;20444;-71
2021/12/27 02:45:55;;;;;;;2.08;0.80;;;4.10;85.20;;;;;;5013677;28;20506;-71
2021/12/27 02:48:24;;;;;;;2.72;0.85;;;4.10;85.10;;;;;;5014395;28;20077;-71
2021/12/27 02:50:53;;;;;;;2.03;0.95;;;4.10;85.10;;;;;;5014082;28;20068;-72
2021/12/27 02:53:21;;;;;;;2.30;1.35;;;4.00;85.10;;;;;;5013473;28;20049;-71
2021/12/27 02:55:50;;;;;;;3.17;1.13;;;4.10;85.00;;;;;;5014297;28;20057;-71
2021/12/27 02:58:17;;;;;;;3.47;1.23;;;4.10;85.10;;;;;;5013693;28;20402;-70
2021/12/27 03:00:47;;;;;;;2.53;0.90;;;4.00;85.10;;;;;;5011606;28;20044;-72
2021/12/27 03:03:14;;;;;;;1.83;1.00;;;4.10;85.10;;;;;;5009955;28;20041;-72
2021/12/27 03:05:44;;;;;;;3.90;1.10;;;4.10;85.10;;;;;;5013895;28;20050;-71
2021/12/27 03:08:14;;;;;;;1.45;0.70;;;4.10;85.10;;;;;;5013444;28;20046;-71
2021/12/27 03:10:42;;;;;;;2.23;1.00;;;4.10;85.10;;;;;;5012795;28;20126;-73
2021/12/27 03:13:16;;;;;;;2.22;0.85;;;4.10;85.10;;;;;;5010532;28;20484;-72
2021/12/27 03:15:43;;;;;;;2.55;1.05;;;4.10;85.20;;;;;;5012010;28;20045;-71
2021/12/27 03:18:12;;;;;;;2.15;1.05;;;4.10;85.20;;;;;;5012964;28;20148;-71
2021/12/27 03:20:39;;;;;;;2.55;0.95;;;4.10;85.20;;;;;;5011837;28;20455;-70
2021/12/27 03:23:06;;;;;;;2.13;1.02;;;4.10;85.20;;;;;;5011449;28;20161;-70
2021/12/27 03:25:34;;;;;;;2.33;1.00;;;4.10;85.20;;;;;;5012369;28;20120;-71
2021/12/27 03:28:03;;;;;;;1.67;0.77;;;4.10;85.20;;;;;;5011214;28;20034;-71
2021/12/27 03:30:31;;;;;;;1.65;0.80;;;4.10;85.30;;;;;;5011297;28;20034;-71
2021/12/27 03:32:58;;;;;;;2.25;0.90;;;4.10;85.20;;;;;;5012195;28;20046;-71
2021/12/27 03:35:28;;;;;;;2.17;1.02;;;4.10;85.20;;;;;;5009776;28;20056;-70
2021/12/27 03:37:57;;;;;;;1.38;0.75;;;4.10;85.20;;;;;;5010184;28;20066;-72
2021/12/27 03:40:25;;;;;;;1.05;0.65;;;4.10;85.30;;;;;;5011518;28;20041;-71
2021/12/27 03:42:53;;;;;;;1.98;0.88;;;4.10;85.20;;;;;;5010704;28;20034;-72
2021/12/27 03:45:23;;;;;;;3.55;1.33;;;4.10;85.30;;;;;;5010458;28;20392;-71
2021/12/27 03:47:52;;;;;;;2.47;1.20;;;4.10;85.30;;;;;;5011690;28;20037;-71
2021/12/27 03:50:20;;;;;;;1.95;1.08;;;4.10;85.20;;;;;;5011419;28;20058;-73
2021/12/27 03:52:47;;;;;;;2.00;0.77;;;4.10;85.30;;;;;;5010444;28;20065;-72
2021/12/27 03:55:15;;;;;;;1.92;0.98;;;4.20;85.30;;;;;;5011157;28;20049;-72
2021/12/27 03:57:51;;;;;;;1.73;1.02;;;4.10;85.40;;;;;;5010380;28;20045;-72
2021/12/27 04:00:31;;;;;;;4.93;1.48;;;4.10;85.40;;;;;;5008482;28;20075;-70
2021/12/27 04:03:01;;;;;;;3.00;1.13;;;4.10;85.30;;;;;;5009707;28;20180;-72
2021/12/27 04:05:30;;;;;;;1.77;1.03;;;4.10;85.30;;;;;;5010711;28;20037;-72
2021/12/27 04:08:01;;;;;;;2.63;1.55;;;4.10;85.30;;;;;;5010767;28;20412;-71
2021/12/27 04:10:30;;;;;;;2.45;1.45;;;4.10;85.40;;;;;;5010922;28;20052;-72
2021/12/27 04:12:58;;;;;;;4.53;1.55;;;4.10;85.50;;;;;;5010662;28;20041;-71
2021/12/27 04:15:25;;;;;;;3.47;1.48;;;4.10;85.50;;;;;;5012212;28;20049;-70
2021/12/27 04:17:52;;;;;;;3.85;1.25;;;4.10;85.50;;;;;;5011725;28;20096;-71
2021/12/27 04:20:22;;;;;;;2.72;1.20;;;4.10;85.60;;;;;;5011104;28;20046;-72
2021/12/27 04:22:50;;;;;;;2.33;1.40;;;4.10;85.60;;;;;;5011558;28;20128;-70
2021/12/27 04:25:18;;;;;;;5.53;1.55;;;4.00;85.60;;;;;;5011942;28;20469;-71
2021/12/27 04:27:45;;;;;;;2.22;0.93;;;4.00;85.60;;;;;;5007634;28;20037;-70
2021/12/27 04:30:13;;;;;;;3.00;1.40;;;4.00;85.60;;;;;;5009032;28;20385;-70
2021/12/27 04:32:40;;;;;;;4.25;1.23;;;4.10;85.60;;;;;;5010980;28;20156;-69
2021/12/27 04:35:08;;;;;;;2.40;1.15;;;4.10;85.50;;;;;;5010541;28;20080;-72
2021/12/27 04:37:37;;;;;;;2.70;1.38;;;4.10;85.50;;;;;;5010964;28;20037;-70
2021/12/27 04:40:06;;;;;;;4.28;1.83;;;4.10;85.50;;;;;;5010861;28;20034;-72
2021/12/27 04:42:34;;;;;;;3.53;1.38;;;4.10;85.50;;;;;;5010466;28;20050;-72
2021/12/27 04:45:02;;;;;;;2.90;1.40;;;4.10;85.50;;;;;;5011483;28;20046;-72
2021/12/27 04:47:29;;;;;;;3.35;1.15;;;4.10;85.50;;;;;;5010847;28;20046;-70
2021/12/27 04:49:57;;;;;;;3.00;1.35;;;4.10;85.50;;;;;;5010260;28;20049;-71
2021/12/27 04:52:24;;;;;;;2.80;1.08;;;4.10;85.50;;;;;;5011077;28;20056;-71
2021/12/27 04:54:53;;;;;;;3.25;1.45;;;4.10;85.50;;;;;;5011177;28;20049;-71
2021/12/27 04:57:20;;;;;;;4.93;1.50;;;4.10;85.50;;;;;;5011867;28;20049;-71
2021/12/27 04:59:46;;;;;;;4.50;1.23;;;4.10;85.60;;;;;;4993706;28;20046;-71
2021/12/27 05:02:13;;;;;;;4.43;1.67;;;4.10;85.50;;;;;;5008997;28;20041;-71
2021/12/27 05:04:40;;;;;;;2.70;1.30;;;4.10;85.50;;;;;;5010569;28;20038;-70
2021/12/27 05:07:07;;;;;;;4.63;1.92;;;4.10;85.50;;;;;;5008452;28;20041;-71
2021/12/27 05:09:34;;;;;;;3.53;1.50;;;4.10;85.50;;;;;;5010463;28;20057;-71
2021/12/27 05:12:04;;;;;;;3.15;1.42;;;4.10;85.40;;;;;;5010448;28;20052;-72
2021/12/27 05:14:31;;;;;;;3.97;1.60;;;4.10;85.40;;;;;;5006681;28;20045;-71
2021/12/27 05:16:58;;;;;;;5.07;1.70;;;4.10;85.30;;;;;;5008386;28;20068;-71
2021/12/27 05:19:25;;;;;;;3.70;1.33;;;4.10;85.40;;;;;;5008690;28;20053;-71
2021/12/27 05:21:51;;;;;;;3.90;1.40;;;4.10;85.40;;;;;;5008802;28;20049;-72
2021/12/27 05:24:20;;;;;;;4.43;1.95;;;4.10;85.40;;;;;;5007252;28;20499;-70
2021/12/27 05:26:49;;;;;;;4.38;1.80;;;4.10;85.40;;;;;;5008726;28;20104;-71
2021/12/27 05:29:17;;;;;;;3.63;1.63;;;4.10;85.40;;;;;;5009341;28;20054;-72
2021/12/27 05:31:44;;;;;;;2.17;1.33;;;4.10;85.40;;;;;;5008401;28;20034;-71
2021/12/27 05:34:14;;;;;;;3.22;1.67;;;4.20;85.30;;;;;;5007170;28;20546;-72
2021/12/27 05:36:42;;;;;;;3.28;1.30;;;4.10;85.30;;;;;;5008279;28;20451;-72
2021/12/27 05:39:09;;;;;;;3.97;1.42;;;4.20;85.20;;;;;;5007981;28;20057;-72
2021/12/27 05:41:36;;;;;;;4.07;1.77;;;4.20;85.40;;;;;;5007226;28;20052;-71
2021/12/27 05:44:03;;;;;;;5.07;2.17;;;4.10;85.30;;;;;;5008232;28;20046;-71
2021/12/27 05:46:31;;;;;;;3.58;1.38;;;4.10;85.40;;;;;;5008596;28;20041;-72
2021/12/27 05:48:58;;;;;;;4.55;1.55;;;4.10;85.50;;;;;;5008981;28;20137;-72
2021/12/27 05:51:25;;;;;;;2.42;0.93;;;4.20;85.40;;;;;;5008998;28;20053;-72
2021/12/27 05:53:52;;;;;;;4.05;1.83;;;4.20;85.40;;;;;;5010429;28;20064;-71
2021/12/27 05:56:19;;;;;;;3.90;1.60;;;4.20;85.40;;;;;;5009804;28;20488;-71
2021/12/27 05:58:49;;;;;;;3.97;1.50;;;4.10;85.40;;;;;;5010394;28;20431;-71
2021/12/27 06:01:16;;;;;;;7.10;1.73;;;4.10;85.30;;;;;;5008081;28;20050;-72
2021/12/27 06:03:44;;;;;;;4.32;1.58;;;4.20;85.40;;;;;;5009972;28;20141;-71
2021/12/27 06:06:11;;;;;;;3.65;1.70;;;4.20;85.40;;;;;;5010364;28;20069;-71
2021/12/27 06:08:38;;;;;;;3.80;1.70;;;4.20;85.60;;;;;;5009336;28;20062;-71
2021/12/27 06:11:08;;;;;;;3.83;1.73;;;4.20;85.60;;;;;;5009417;28;20057;-71
2021/12/27 06:13:35;;;;;;;4.40;1.70;;;4.20;85.50;;;;;;5009779;28;20462;-71
2021/12/27 06:16:04;;;;;;;6.85;1.88;;;4.20;85.50;;;;;;5009243;28;20503;-71
2021/12/27 06:18:31;;;;;;;3.38;1.90;;;4.20;85.50;;;;;;5009981;28;20443;-73
2021/12/27 06:20:59;;;;;;;4.55;2.38;;;4.10;85.50;;;;;;5009907;28;20050;-71
2021/12/27 06:23:28;;;;;;;6.82;2.53;;;4.20;85.50;;;;;;5010325;28;20579;-71
2021/12/27 06:25:55;;;;;;;4.00;1.67;;;4.20;85.50;;;;;;5008472;28;20062;-71
2021/12/27 06:28:22;;;;;;;4.70;1.90;;;4.20;85.60;;;;;;5009806;28;20046;-71
2021/12/27 06:30:49;;;;;;;4.28;1.77;;;4.20;85.60;;;;;;5010288;28;20088;-70
2021/12/27 06:33:16;;;;;;;3.28;1.60;;;4.20;85.50;;;;;;5010796;28;20057;-71
2021/12/27 06:35:43;;;;;;;4.38;1.92;;;4.20;85.60;;;;;;5009103;28;20575;-71
2021/12/27 06:38:12;;;;;;;3.67;1.55;;;4.20;85.50;;;;;;5009566;28;20042;-70
2021/12/27 06:40:39;;;;;;;4.72;2.03;;;4.20;85.50;;;;;;5009752;28;20052;-69
2021/12/27 06:43:07;;;;;;;6.15;2.55;;;4.20;85.50;;;;;;5009423;28;20046;-73
2021/12/27 06:45:38;;;;;;;5.18;2.00;;;4.20;85.40;;;;;;5009447;28;20499;-72
2021/12/27 06:48:05;;;;;;;4.15;2.08;;;4.20;85.50;;;;;;5009389;28;20125;-71
2021/12/27 06:50:32;;;;;;;5.13;2.33;;;4.20;85.40;;;;;;5009910;28;20065;-71
2021/12/27 06:52:59;;;;;;;4.03;1.85;;;4.20;85.50;;;;;;5008381;28;20049;-72
2021/12/27 06:55:30;;;;;;;4.85;2.88;;;4.20;85.50;;;;;;5009630;28;20062;-70
2021/12/27 06:57:57;;;;;;;7.10;2.00;;;4.20;85.50;;;;;;5012055;28;20128;-71
2021/12/27 07:00:24;;;;;;;3.88;1.80;;;4.20;85.60;;;;;;5009918;28;20068;-70
2021/12/27 07:02:51;;;;;;;4.45;1.70;;;4.20;85.50;;;;;;5011671;28;20052;-71
2021/12/27 07:05:18;;;;;;;5.57;1.90;;;4.20;85.60;;;;;;5013035;28;20508;-71
2021/12/27 07:07:46;;;;;;;6.43;2.35;;;4.20;85.60;;;;;;5011198;28;20563;-72
2021/12/27 07:10:19;;;;;;;6.68;1.98;;;4.20;85.70;;;;;;5010532;28;20574;-72
2021/12/27 07:12:48;;;;;;;4.63;2.13;;;4.20;85.70;;;;;;5011167;28;20042;-72
2021/12/27 07:15:15;;;;;;;4.00;1.92;;;4.20;85.70;;;;;;5011058;28;20140;-71
2021/12/27 07:17:42;;;;;;;3.20;1.27;;;4.20;85.60;;;;;;5011847;28;20046;-72
2021/12/27 07:20:10;;;;;;;3.10;1.40;;;4.20;85.60;;;;;;5012400;28;20403;-70
2021/12/27 07:22:40;;;;;;;3.65;1.77;;;4.20;85.60;;;;;;5011398;28;20121;-72
2021/12/27 07:25:08;;;;;;;4.13;1.45;;;4.20;85.60;;;;;;5010652;28;20049;-71
2021/12/27 07:27:35;;;;;;;4.00;1.85;;;4.20;85.70;;;;;;5010913;28;20045;-71
2021/12/27 07:30:05;;;;;;;4.38;1.50;;;4.20;85.70;;;;;;5012084;28;20041;-71
2021/12/27 07:32:32;;;;;;;5.13;2.07;;;4.20;85.80;;;;;;5012855;28;20050;-70
2021/12/27 07:34:59;;;;;;;4.43;1.90;;;4.20;85.90;;;;;;5012351;28;20048;-72
2021/12/27 07:37:25;;;;;;;4.63;1.73;;;4.20;86.00;;;;;;5013119;28;20050;-69
2021/12/27 07:39:53;;;;;;;3.42;1.92;;;4.20;86.00;;;;;;5012897;28;20044;-70
2021/12/27 07:42:20;;;;;;;3.65;1.77;;;4.20;86.10;;;;;;5012336;28;20046;-70
2021/12/27 07:44:47;;;;;;;5.75;2.13;;;4.20;86.10;;;;;;5012337;28;20117;-70
2021/12/27 07:47:15;;;;;;;4.28;1.88;;;4.20;86.10;;;;;;5012878;28;20117;-70
2021/12/27 07:49:42;;;;;;;3.78;1.50;;;4.20;86.10;;;;;;5011970;28;20042;-71
2021/12/27 07:52:09;;;;;;;3.10;1.48;;;4.20;86.10;;;;;;5011734;28;20064;-72
2021/12/27 07:54:37;;;;;;;4.43;1.95;;;4.20;86.20;;;;;;5012784;28;20057;-70
2021/12/27 07:57:05;;;;;;;5.82;2.00;;;4.20;86.20;;;;;;5012888;28;20041;-71
2021/12/27 07:59:32;;;;;;;4.05;1.77;;;4.20;86.20;;;;;;5011715;28;20492;-70
2021/12/27 08:01:59;;;;;;;5.80;2.33;;;4.20;86.30;;;;;;5006070;28;20048;-71
2021/12/27 08:04:27;;;;;;;3.53;1.60;;;4.20;86.20;;;;;;5011053;28;20084;-71
2021/12/27 08:06:54;;;;;;;4.43;2.30;;;4.20;86.20;;;;;;5010306;28;20539;-71
2021/12/27 08:09:21;;;;;;;4.93;1.38;;;4.20;86.20;;;;;;5011378;28;20062;-72
2021/12/27 08:11:48;;;;;;;4.05;1.63;;;4.20;86.30;;;;;;5012145;28;20045;-71
2021/12/27 08:14:15;;;;;;;6.00;2.08;;;4.20;86.30;;;;;;5012232;28;20123;-71
2021/12/27 08:16:42;;;;;;;4.25;2.08;;;4.20;86.40;;;;;;5011918;28;20046;-69
2021/12/27 08:19:09;;;;;;;3.22;1.27;;;4.20;86.30;;;;;;5011426;28;20161;-71
2021/12/27 08:21:38;;;;;;;3.95;1.48;;;4.30;86.30;;;;;;5012575;28;20046;-71
2021/12/27 08:24:06;;;;;;;3.00;1.83;;;4.20;86.30;;;;;;5009722;28;20050;-71
2021/12/27 08:26:34;;;;;;;3.97;1.75;;;4.30;86.30;;;;;;5011660;28;20096;-71
2021/12/27 08:29:03;;;;;;;5.55;1.70;;;4.30;86.40;;;;;;5009887;28;20054;-71
2021/12/27 08:31:30;;;;;;;6.63;1.83;;;4.30;86.50;;;;;;5011732;28;20575;-70
2021/12/27 08:33:57;;;;;;;3.83;1.75;;;4.30;86.50;;;;;;5008754;28;20121;-72
2021/12/27 08:36:24;;;;;;;4.30;1.52;;;4.30;86.50;;;;;;5010312;28;20108;-71
2021/12/27 08:38:53;;;;;;;5.35;2.30;;;4.30;86.50;;;;;;5009644;28;20051;-71
2021/12/27 08:41:27;;;;;;;3.55;1.27;;;4.30;86.50;;;;;;5010547;28;20169;-71
2021/12/27 08:43:55;;;;;;;3.70;1.27;;;4.30;86.40;;;;;;5009680;28;20399;-71
2021/12/27 08:46:22;;;;;;;3.67;1.65;;;4.40;86.30;;;;;;5009944;28;20052;-72
2021/12/27 08:48:49;;;;;;;3.22;1.55;;;4.40;86.30;;;;;;5008954;28;20046;-71
2021/12/27 08:51:16;;;;;;;3.35;1.20;;;4.40;86.40;;;;;;5009250;28;20053;-71
2021/12/27 08:53:43;;;;;;;2.85;1.42;;;4.40;86.30;;;;;;5009101;28;20134;-73
2021/12/27 08:56:12;;;;;;;4.15;2.00;;;4.40;86.30;;;;;;5008764;28;20042;-70
2021/12/27 08:58:39;;;;;;;3.95;1.40;;;4.40;86.40;;;;;;5009972;28;20038;-73
2021/12/27 09:01:07;;;;;;;4.40;1.83;;;4.40;86.50;;;;;;5005812;28;20042;-72
2021/12/27 09:03:34;;;;;;;4.38;1.80;;;4.50;86.50;;;;;;5009093;28;20057;-71
2021/12/27 09:06:03;;;;;;;4.32;1.70;;;4.50;86.50;;;;;;5009525;28;20124;-72
2021/12/27 09:08:30;;;;;;;4.00;1.67;;;4.60;86.40;;;;;;5007947;28;20029;-72
2021/12/27 09:10:58;;;;;;;2.45;1.00;;;4.60;86.30;;;;;;5009302;28;20406;-72
2021/12/27 09:13:28;;;;;;;4.53;1.55;;;4.60;86.30;;;;;;5011385;28;20077;-70
2021/12/27 09:15:55;;;;;;;5.10;1.60;;;4.60;86.40;;;;;;5009913;28;20129;-74
2021/12/27 09:18:22;;;;;;;3.20;1.10;;;4.60;86.20;;;;;;4993317;28;20140;-69
2021/12/27 09:20:49;;;;;;;2.45;1.33;;;4.60;86.10;;;;;;5011412;28;20057;-71
2021/12/27 09:23:17;;;;;;;3.17;1.27;;;4.60;86.20;;;;;;5011219;28;20488;-71
2021/12/27 09:25:44;;;;;;;3.38;1.52;;;4.70;86.10;;;;;;5010362;28;20046;-71
2021/12/27 09:28:13;;;;;;;3.63;1.42;;;4.60;86.10;;;;;;5010858;28;20041;-71
2021/12/27 09:30:41;;;;;;;6.07;1.60;;;4.60;86.10;;;;;;5009904;28;20111;-71
2021/12/27 09:33:09;;;;;;;3.20;1.30;;;4.60;86.00;;;;;;5011417;28;20038;-71
2021/12/27 09:35:36;;;;;;;4.05;1.98;;;4.70;85.90;;;;;;5010537;28;20141;-71
2021/12/27 09:38:04;;;;;;;3.13;1.17;;;4.60;85.80;;;;;;5010958;28;20042;-71
2021/12/27 09:40:32;;;;;;;3.70;1.35;;;4.60;85.80;;;;;;5007812;28;20049;-72
2021/12/27 09:42:59;;;;;;;2.75;1.30;;;4.70;85.80;;;;;;5010030;28;20045;-71
2021/12/27 09:45:26;;;;;;;3.00;1.10;;;4.70;85.80;;;;;;5009996;28;20045;-72
2021/12/27 09:47:54;;;;;;;2.60;1.17;;;4.70;85.90;;;;;;5008060;28;20614;-72
2021/12/27 09:50:25;;;;;;;3.00;1.20;;;4.70;85.90;;;;;;5010797;28;20049;-72
2021/12/27 09:52:52;;;;;;;2.13;0.93;;;4.70;85.80;;;;;;5009940;28;20060;-72
2021/12/27 09:55:22;;;;;;;3.00;1.30;;;4.70;85.80;;;;;;5009389;28;20510;-70
2021/12/27 09:57:49;;;;;;;3.25;1.25;;;4.70;85.80;;;;;;5009925;28;20045;-71
2021/12/27 10:00:18;;;;;;;2.83;1.13;;;4.70;85.90;;;;;;5006448;28;20508;-70
2021/12/27 10:02:49;;;;;;;2.30;1.05;;;4.70;86.00;;;;;;5008472;28;20095;-71
2021/12/27 10:05:17;;;;;;;4.47;1.58;;;4.70;86.10;;;;;;5009888;28;20046;-71
2021/12/27 10:07:44;;;;;;;3.88;1.10;;;4.70;86.10;;;;;;5009571;28;20046;-71
2021/12/27 10:10:11;;;;;;;4.25;1.40;;;4.70;86.20;;;;;;5009347;28;20058;-70
2021/12/27 10:12:39;;;;;;;2.95;1.40;;;4.70;86.50;;;;;;5008933;28;20037;-71
2021/12/27 10:15:08;;;;;;;3.72;1.40;;;4.70;86.40;;;;;;5007455;28;20419;-73
2021/12/27 10:17:37;;;;;;;4.23;0.70;;;4.70;86.50;;;;;;5007453;28;20052;-71
2021/12/27 10:20:12;;;;;;;2.00;1.05;;;4.70;86.40;;;;;;5008682;28;20891;-72
2021/12/27 10:22:43;;;;;;;2.75;1.00;;;4.70;86.50;;;;;;5008598;28;20069;-72
2021/12/27 10:25:14;;;;;;;2.47;1.13;;;4.70;86.60;;;;;;5006445;28;20081;-71
2021/12/27 10:27:42;;;;;;;1.92;0.75;;;4.80;86.50;;;;;;5007823;28;20054;-73
2021/12/27 10:30:12;;;;;;;4.95;1.65;;;4.80;86.50;;;;;;5009645;28;20096;-72
2021/12/27 10:32:39;;;;;;;3.10;1.40;;;4.80;86.40;;;;;;5010669;28;20100;-71
2021/12/27 10:35:08;;;;;;;2.60;1.05;;;4.90;86.50;;;;;;4993433;28;20388;-70
2021/12/27 10:37:37;;;;;;;2.67;0.95;;;4.90;86.60;;;;;;5011598;28;20089;-72
2021/12/27 10:40:07;;;;;;;2.30;0.85;;;5.00;86.60;;;;;;5011126;28;20068;-71
2021/12/27 10:42:45;;;;;;;3.35;1.38;;;5.00;86.40;;;;;;5012459;28;20054;-70
2021/12/27 10:45:16;;;;;;;2.15;0.95;;;5.00;86.50;;;;;;5012395;28;20057;-71
2021/12/27 10:47:44;;;;;;;2.95;0.88;;;5.10;86.50;;;;;;5011633;28;20100;-71
2021/12/27 10:50:17;;;;;;;2.30;0.85;;;5.10;86.60;;;;;;5011353;28;20056;-73
2021/12/27 10:52:50;;;;;;;2.72;1.23;;;5.10;86.50;;;;;;5013554;28;20415;-72
2021/12/27 10:55:21;;;;;;;2.88;0.98;;;5.10;86.50;;;;;;5014494;28;20046;-70
2021/12/27 10:57:48;;;;;;;3.53;0.80;;;5.10;86.50;;;;;;5013392;28;20046;-71
2021/12/27 11:00:19;;;;;;;2.83;1.00;;;5.10;86.50;;;;;;5011601;28;20050;-72
2021/12/27 11:02:46;;;;;;;2.15;0.80;;;5.10;86.40;;;;;;5013627;28;20117;-71
2021/12/27 11:05:14;;;;;;;1.73;0.88;;;5.10;86.40;;;;;;5013167;28;20496;-70
2021/12/27 11:07:42;;;;;;;2.70;1.33;;;5.10;86.30;;;;;;5012175;28;20038;-72
2021/12/27 11:10:09;;;;;;;2.55;0.95;;;5.10;86.30;;;;;;5013252;28;20059;-70
2021/12/27 11:12:38;;;;;;;2.75;1.40;;;5.10;86.30;;;;;;5012879;28;20042;-71
2021/12/27 11:15:09;;;;;;;3.15;1.45;;;5.10;86.20;;;;;;4995803;28;20419;-70
2021/12/27 11:17:37;;;;;;;1.83;0.90;;;5.10;86.20;;;;;;5014115;28;20046;-73
2021/12/27 11:20:08;;;;;;;2.90;1.23;;;5.10;86.20;;;;;;5012660;28;20104;-71
2021/12/27 11:22:36;;;;;;;4.07;1.08;;;5.10;86.10;;;;;;5010379;28;20607;-71
2021/12/27 11:25:06;;;;;;;4.05;1.27;;;5.10;86.10;;;;;;5010520;28;20510;-71
2021/12/27 11:27:35;;;;;;;3.85;1.38;;;5.10;86.10;;;;;;5011595;28;20073;-71
2021/12/27 11:30:12;;;;;;;5.50;1.42;;;5.10;86.10;;;;;;5013668;28;20443;-70
2021/12/27 11:33:12;;;;;;;2.70;1.10;;;5.10;86.10;;;;;;5012719;28;20108;-71
2021/12/27 11:36:04;;;;;;;3.47;1.48;;;5.20;86.20;;;;;;5013908;28;20049;-70
2021/12/27 11:38:33;;;;;;;4.97;1.80;;;5.10;86.20;;;;;;5012653;28;20049;-73
2021/12/27 11:41:01;;;;;;;4.40;1.80;;;5.20;86.20;;;;;;5010857;28;20050;-71
2021/12/27 11:43:53;;;;;;;5.50;1.95;;;5.20;86.20;;;;;;5012650;28;20053;-71
2021/12/27 11:46:23;;;;;;;5.40;2.25;;;5.20;86.10;;;;;;5006509;28;20077;-71
2021/12/27 11:48:52;;;;;;;3.80;1.43;;;5.20;86.10;;;;;;5012324;28;20041;-72
2021/12/27 11:51:30;;;;;;;5.28;2.05;;;5.20;86.20;;;;;;5011808;28;20064;-73
2021/12/27 11:53:58;;;;;;;4.30;1.83;;;5.20;86.20;;;;;;5010148;28;20042;-71
2021/12/27 11:56:49;;;;;;;5.60;2.05;;;5.20;86.20;;;;;;5011038;28;20113;-71
2021/12/27 11:59:36;;;;;;;6.00;2.40;;;5.20;86.10;;;;;;5009342;28;20046;-73
2021/12/27 12:02:29;;;;;;;7.20;2.35;;;5.20;86.20;;;;;;4991342;28;20397;-73
2021/12/27 12:04:58;;;;;;;4.82;2.00;;;5.20;86.20;;;;;;5009779;28;20046;-70
2021/12/27 12:07:54;;;;;;;3.45;1.80;;;5.30;86.10;;;;;;5007641;28;21239;-72
2021/12/27 12:10:22;;;;;;;5.60;2.65;;;5.20;86.10;;;;;;4974889;28;20053;-72
2021/12/27 12:13:32;;;;;;;6.63;2.58;;;5.30;86.10;;;;;;5008636;28;20447;-73
2021/12/27 12:16:08;;;;;;;5.43;2.03;;;5.20;86.10;;;;;;4993742;28;20570;-71
2021/12/27 12:18:39;;;;;;;5.82;2.65;;;5.20;86.00;;;;;;5008572;28;20392;-71
2021/12/27 12:21:06;;;;;;;7.05;2.65;;;5.20;86.10;;;;;;5006639;28;20487;-72
2021/12/27 12:23:37;;;;;;;5.93;2.63;;;5.30;86.10;;;;;;5007062;28;20491;-71
2021/12/27 12:26:06;;;;;;;4.32;2.50;;;5.20;86.10;;;;;;5008394;28;20121;-72
2021/12/27 12:28:33;;;;;;;5.28;2.30;;;5.30;86.10;;;;;;5009263;28;20038;-71
2021/12/27 12:31:00;;;;;;;6.55;2.67;;;5.30;86.10;;;;;;5008090;28;20506;-71
2021/12/27 12:33:32;;;;;;;7.65;2.92;;;5.30;86.20;;;;;;5010124;28;20444;-71
2021/12/27 12:36:04;;;;;;;5.10;2.55;;;5.30;86.20;;;;;;5010495;28;20126;-72
2021/12/27 12:38:32;;;;;;;8.52;2.67;;;5.30;86.20;;;;;;5010130;28;20048;-72
2021/12/27 12:41:03;;;;;;;5.60;3.25;;;5.30;86.20;;;;;;5010889;28;20789;-72
2021/12/27 12:43:34;;;;;;;;;;;5.30;86.20;;;;;;5010619;28;20045;-72
2021/12/27 12:46:10;;;;;;;;;;;5.30;86.10;;;;;;5011693;28;19928;-70
2021/12/27 12:48:37;;;;;;;6.55;3.05;;;5.30;86.10;;;;;;5011886;28;20422;-72
2021/12/27 12:51:05;;;;;;;8.43;3.97;;;5.30;86.10;;;;;;4994241;28;20137;-74
2021/12/27 12:53:33;;;;;;;6.13;2.85;;;5.40;86.10;;;;;;5010406;28;20049;-71
2021/12/27 12:56:02;;;;;;;6.28;2.25;;;5.40;86.10;;;;;;5010843;28;20119;-73
2021/12/27 12:58:34;;;;;;;7.57;2.75;;;5.40;86.10;;;;;;5011243;28;20081;-72
2021/12/27 13:01:07;;;;;;;8.18;3.28;;;5.40;86.20;;;;;;5009426;28;20141;-70
2021/12/27 13:03:34;;;;;;;7.32;2.97;;;5.40;86.20;;;;;;5011544;28;20121;-70
2021/12/27 13:06:03;;;;;;;8.65;3.83;;;5.40;86.20;;;;;;5010626;28;20125;-71
2021/12/27 13:08:32;;;;;;;7.70;3.28;;;5.40;86.20;;;;;;5009588;28;20042;-70